»·PEaware :: CGALT KHHR-KPMD

CGALT :: KHHR-KPMD

FLIGHT INFORMATION

Flight Status: Arrived
Operator: Unknown
More flights by this operator :: More flights under this callsign
Pilot: Anonymous 42436 (42436)
Aircraft: CIRRUS SR-22 TURBO
(S22T)
More flights by this aircraft type
Origin: KHHR Northrop/Hawthorne Mun
United States
Destination: KPMD Palmdale AF Plant 42
United States
More flights between these airports :: More routes between these airports
Route: LAX V165 LANGE V518 PMD
File this flight plan on PilotEdge
Remarks:
Altitude:
(Current/Filed)
9,000ft
Speed:
(Current/Filed)
172kts
Departed: 15-Nov-23 06:56 PM
Arrived: 15-Nov-23 07:39 PM
Distance/Time
Traveled:
44nm/0:43
Distance/Time
To Go:
Arrived

Flight Plot

Page will automatically refresh every two minutes.

Flight plan parsing failed; only flown route is shown


Map Options




Map Legend


Flown Route
Filed Route
Departure Airport
Arrival Airport
Navaid (VOR, NDB)
Fix

Horizontal Profiles

Position Reports

Time Latitude Longitude Heading Altitude Ground
Speed
15-Nov-23 18:35 33.921958 -118.340459 66 62ft 0kts
15-Nov-23 18:36 33.921958 -118.340459 66 62ft 0kts
15-Nov-23 18:37 33.921958 -118.340459 66 62ft 0kts
15-Nov-23 18:38 33.921958 -118.340459 66 62ft 0kts
15-Nov-23 18:39 33.921958 -118.340459 66 62ft 0kts
15-Nov-23 18:40 33.921958 -118.340459 66 62ft 0kts
15-Nov-23 18:41 33.921958 -118.340459 66 62ft 0kts
15-Nov-23 18:42 33.921958 -118.340459 66 62ft 0kts
15-Nov-23 18:43 33.921958 -118.340459 66 62ft 0kts
15-Nov-23 18:44 33.921958 -118.340459 66 62ft 0kts
15-Nov-23 18:45 33.921958 -118.340459 66 62ft 0kts
15-Nov-23 18:46 33.921958 -118.340459 66 62ft 0kts
15-Nov-23 18:47 33.922193 -118.339818 78 62ft 6kts
15-Nov-23 18:48 33.922379 -118.336261 87 59ft 13kts
15-Nov-23 18:49 33.922540 -118.332816 87 59ft 8kts
15-Nov-23 18:50 33.922679 -118.329746 85 55ft 10kts
15-Nov-23 18:51 33.922796 -118.327282 2 55ft 0kts
15-Nov-23 18:52 33.922796 -118.327282 2 55ft 0kts
15-Nov-23 18:53 33.922796 -118.327282 2 55ft 0kts
15-Nov-23 18:54 33.922994 -118.327264 6 55ft 6kts
15-Nov-23 18:55 33.922688 -118.339073 265 165ft 112kts
15-Nov-23 18:56 33.908840 -118.376974 221 1394ft 131kts
15-Nov-23 18:57 33.883626 -118.405073 222 2991ft 141kts
15-Nov-23 18:58 33.849716 -118.441588 220 2927ft 167kts
15-Nov-23 18:59 33.825297 -118.475663 273 4888ft 129kts
15-Nov-23 19:00 33.851667 -118.476997 42 6538ft 129kts
15-Nov-23 19:01 33.881769 -118.453041 21 8125ft 134kts
15-Nov-23 19:02 33.919430 -118.437367 16 9016ft 163kts
15-Nov-23 19:03 33.966480 -118.434222 356 9002ft 175kts
15-Nov-23 19:04 34.015320 -118.437204 356 9000ft 176kts
15-Nov-23 19:05 34.064405 -118.440289 356 9000ft 176kts
15-Nov-23 19:06 34.113417 -118.443381 356 8996ft 177kts
15-Nov-23 19:07 34.162435 -118.446481 356 9000ft 176kts
15-Nov-23 19:08 34.211449 -118.449584 356 8999ft 176kts
15-Nov-23 19:09 34.260536 -118.452696 356 9000ft 176kts
15-Nov-23 19:10 34.309575 -118.455808 356 9000ft 176kts
15-Nov-23 19:11 34.358524 -118.458917 356 9000ft 176kts
15-Nov-23 19:12 34.398873 -118.435147 51 9002ft 176kts
15-Nov-23 19:13 34.428625 -118.387886 51 9000ft 176kts
15-Nov-23 19:14 34.457995 -118.341117 52 9003ft 171kts
15-Nov-23 19:15 34.486753 -118.295313 52 9000ft 170kts
15-Nov-23 19:16 34.515015 -118.250218 52 8993ft 160kts
15-Nov-23 19:17 34.539902 -118.210436 52 8709ft 142kts
15-Nov-23 19:18 34.563815 -118.172171 52 8095ft 142kts
15-Nov-23 19:19 34.587791 -118.133763 52 7468ft 143kts
15-Nov-23 19:20 34.611659 -118.095482 52 6947ft 139kts
15-Nov-23 19:21 34.631694 -118.056119 82 6492ft 134kts
15-Nov-23 19:22 34.635159 -118.010987 84 6026ft 139kts
15-Nov-23 19:23 34.638543 -117.963330 84 5441ft 143kts
15-Nov-23 19:24 34.643043 -117.915652 82 4990ft 134kts
15-Nov-23 19:25 34.647166 -117.874179 91 4986ft 117kts
15-Nov-23 19:26 34.634730 -117.839290 123 4997ft 112kts
15-Nov-23 19:27 34.615145 -117.807567 126 5005ft 123kts
15-Nov-23 19:28 34.595427 -117.773193 92 5004ft 125kts
15-Nov-23 19:29 34.619222 -117.770326 307 5007ft 125kts
15-Nov-23 19:30 34.640818 -117.803667 306 5000ft 126kts
15-Nov-23 19:31 34.647903 -117.843228 260 4996ft 126kts
15-Nov-23 19:32 34.643686 -117.884741 262 4864ft 117kts
15-Nov-23 19:33 34.640748 -117.925442 265 4550ft 101kts
15-Nov-23 19:34 34.638913 -117.958548 264 4376ft 102kts
15-Nov-23 19:35 34.636923 -117.995948 265 3821ft 117kts
15-Nov-23 19:36 34.635014 -118.031701 265 3210ft 88kts
15-Nov-23 19:38 34.633280 -118.062577 265 2733ft 93kts
15-Nov-23 19:39 34.632386 -118.084468 266 2504ft 7kts
15-Nov-23 19:40 34.632887 -118.088881 7 2505ft 15kts
15-Nov-23 19:41 34.633222 -118.088842 1 2504ft 7kts
15-Nov-23 19:42 34.634673 -118.090709 263 2504ft 16kts
15-Nov-23 19:43 34.635196 -118.096338 354 2508ft 12kts
15-Nov-23 19:44 34.635943 -118.095958 47 2506ft 0kts

Navigation Log

Ident Type
Flight plan parsing failed, navigation log unavailable